Montreal / Pierre Elliott Trudeau International Airport

CYUL · Quebec, 加拿大

罗盘
风向 的 风向 150° 蒙特利尔皮埃尔·埃利奥特·特鲁多国际机场 6R/24L
风: 15 kt, 4 beaufort

1 kt

15 kt
改变
0 5.000 10.000 15.000 20.000
OVC 12.000 ft
METAR CYUL 030100Z 15015KT 15SM OVC120 04/M04 A3020 RMK AC8 SLP229

METAR 蒙特利尔皮埃尔·埃利奥特·特鲁多国际机场 - CYUL/YUL

蒙特利尔皮埃尔·埃利奥特·特鲁多国际机场是,加拿大中的大型机场。 该机场有3条跑道: 6R/24L, 6L/24R 和 10/28. 该领域的国际民航组织标志是CYUL 它的国际航空运输协会代码是YUL.

这份报告是针对2022年12月2日 20:00, 当地时间在蒙特利尔皮埃尔·埃利奥特·特鲁多国际机场进行的。

机场观察

风向为150°,速度为15 kt。

可见度为15 mi。

有乌云密布在12.000 ft的高度。 破损或更高的上限为12.000 ft。

温度为4 °C,阵风为-3 °C。 露点为-4 °C,相对湿度为56%。 海平面上的气压为30,20 inHg (QNH)。

白天

今天,太阳从07:16升起,在16:12降落。 这适用于蒙特利尔皮埃尔·埃利奥特·特鲁多国际机场,世界夏令时可能有所不同。 当地时间与世界标准时间之间的时差为-5 小时。 当前,没有夏令时有效。

公司介绍

我们没有关于这个机场的公司信息。

体会

到Vliegles.nl去找飞行课程,跳伞和其他飞行体验。 浏览页面,了解蒙特利尔皮埃尔·埃利奥特·特鲁多国际机场附近所有可用的活动。 你也可以使用搜索功能来寻找你所在地附近的特定飞行课程、跳伞或其他飞行体验。

跑道

Id 标题 侧风 逆风 侧风 %
6R/24L 057°-237° 15 kt 100 %
6L/24R 057°-237° 15 kt 100 %
10/28 102°-282° 11 kt 10 kt 74 %

逆风成分最大的方向会被突出显示,并用于横风计算。 这并不一定意味着这个方向在使用。

乌云

12.000 ft OVC 乌云密布

温度 & 天气

温度 4 °C
露点 -4 °C
相对湿度 56%
风寒 -3 °C
Kp-index 0 (0-9)

评论

SLP229海平面压力为30,21 inHg (30,21 inHg)
AC8

白天

日出
07:16 (10:19)
中午
11:44
日落
16:12

小工具

你想在你的网站上有一个关于蒙特利尔皮埃尔·埃利奥特·特鲁多国际机场的当前航空天气(METAR)的小部件吗?

显示HTML代码

我们和第三方通过cookies跟踪您在我们网站上的互联网行为。如果你继续,我们认为你同意我们的饼干政策